Weather at Augusta Regional At Bush Field

Public forecast

Using degrees Fahrenheit for public forecast. Weather courtesy of forecast.io.

Current aviation weather report (METAR) for Augusta Regional At Bush Field

Retrieved 2020/09/22 09:53 UTC (40 minutes ago):

KAGS 220953Z AUTO 02005KT 10SM CLR 12/09 A3027 RMK AO2 SLP249 T01170094

Aviation forecast (TAF) for Augusta Regional At Bush Field

Retrieved 2020/09/22 06:24 UTC (4 hours ago):

TAF KAGS 220522Z 2206/2306 06006KT P6SM SKC FM221600 03005KT P6SM SKC FM222300 VRB03KT P6SM SCT250